Time;durP1;ratioP1;P1;durP2;ratioP2;P2;SDS_P1;SDS_P2;PMS_P1;PMS_P2;Temp;Humidity;BMP_temperature;BMP_pressure;BME280_temperature;BME280_humidity;BME280_pressure;Samples;Min_cycle;Max_cycle;Signal;HPM_P1;HPM_P2
2023/01/10 00:00:34;;;;;;;15.98;4.68;;;;;;;4.14;100.00;101110.13;5026584;28;20056;-56
2023/01/10 00:03:04;;;;;;;18.42;4.78;;;;;;;4.12;100.00;101117.28;5026034;28;20087;-55
2023/01/10 00:05:30;;;;;;;17.48;5.00;;;;;;;4.14;100.00;101121.47;5024561;28;20669;-53
2023/01/10 00:07:55;;;;;;;15.20;4.75;;;;;;;4.09;100.00;101128.03;5019056;28;20034;-56
2023/01/10 00:10:20;;;;;;;17.30;4.93;;;;;;;4.06;100.00;101134.34;5025026;28;20503;-55
2023/01/10 00:15:34;;;;;;;19.05;5.15;;;;;;;4.04;100.00;101142.31;5027355;28;20057;-54
2023/01/10 00:17:59;;;;;;;19.65;4.78;;;;;;;4.01;100.00;101142.50;5026563;28;20389;-55
2023/01/10 00:20:24;;;;;;;15.95;4.57;;;;;;;4.02;100.00;101149.47;5023119;28;20040;-54
2023/01/10 00:22:50;;;;;;;22.55;5.15;;;;;;;4.05;100.00;101158.91;5023081;28;20094;-55
2023/01/10 00:25:18;;;;;;;18.70;4.55;;;;;;;4.00;100.00;101156.59;5027326;28;20030;-53
2023/01/10 00:27:44;;;;;;;21.80;4.70;;;;;;;3.99;100.00;101165.41;5027461;28;20047;-54
2023/01/10 00:30:13;;;;;;;17.88;4.28;;;;;;;4.00;100.00;101171.53;5019988;28;20021;-51
2023/01/10 00:32:43;;;;;;;18.30;4.85;;;;;;;4.02;100.00;101174.84;5027204;28;20033;-54
2023/01/10 00:35:10;;;;;;;19.60;4.70;;;;;;;3.96;100.00;101180.53;5026125;28;20061;-53
2023/01/10 00:37:35;;;;;;;19.67;4.68;;;;;;;3.97;100.00;101193.56;5020493;28;20034;-53
2023/01/10 00:40:01;;;;;;;18.35;4.38;;;;;;;3.95;100.00;101186.75;5020764;28;20033;-52
2023/01/10 00:45:10;;;;;;;20.73;5.00;;;;;;;3.89;100.00;101191.47;5028171;28;20774;-55
2023/01/10 00:47:36;;;;;;;18.63;4.80;;;;;;;3.87;100.00;101196.00;5027705;28;20031;-54
2023/01/10 00:50:04;;;;;;;14.93;4.57;;;;;;;3.85;100.00;101190.00;5025392;28;20037;-53
2023/01/10 00:52:30;;;;;;;18.35;4.93;;;;;;;3.82;100.00;101194.63;5021657;28;20026;-55
2023/01/10 00:54:55;;;;;;;21.67;5.03;;;;;;;3.84;100.00;101201.47;5023514;28;20091;-55
2023/01/10 00:57:20;;;;;;;18.73;4.90;;;;;;;3.87;100.00;101193.38;5022738;28;20033;-57
2023/01/10 00:59:46;;;;;;;16.88;4.55;;;;;;;3.83;100.00;101197.16;5017461;28;20473;-54
2023/01/10 01:02:11;;;;;;;23.95;5.30;;;;;;;3.81;100.00;101199.06;5018507;28;20083;-53
2023/01/10 01:04:36;;;;;;;21.73;5.25;;;;;;;3.85;100.00;101197.88;5029096;28;20100;-54
2023/01/10 01:07:02;;;;;;;21.27;5.22;;;;;;;3.88;100.00;101202.94;5019338;28;20033;-55
2023/01/10 01:09:28;;;;;;;18.88;5.20;;;;;;;3.88;100.00;101216.03;5028753;28;20053;-55
2023/01/10 01:11:55;;;;;;;18.48;5.35;;;;;;;3.83;100.00;101218.16;5026055;28;20033;-54
2023/01/10 01:14:21;;;;;;;17.48;4.95;;;;;;;3.83;100.00;101212.91;5024537;28;20041;-55
2023/01/10 01:16:46;;;;;;;18.77;4.68;;;;;;;3.87;100.00;101224.88;5023964;28;20037;-52
2023/01/10 01:19:11;;;;;;;26.77;5.97;;;;;;;3.83;100.00;101239.13;5019958;28;20378;-55
2023/01/10 01:21:37;;;;;;;20.77;5.00;;;;;;;3.86;100.00;101238.09;5024696;28;20045;-56
2023/01/10 01:24:02;;;;;;;29.83;5.50;;;;;;;3.83;100.00;101233.03;5023310;28;20903;-54
2023/01/10 01:26:27;;;;;;;20.35;6.20;;;;;;;3.85;100.00;101247.72;5026106;28;20038;-56
2023/01/10 01:28:53;;;;;;;22.73;7.10;;;;;;;3.92;100.00;101242.06;5027673;28;20045;-56
2023/01/10 01:31:18;;;;;;;28.90;9.65;;;;;;;3.85;100.00;101239.84;5029232;28;20037;-55
2023/01/10 01:33:45;;;;;;;24.70;10.10;;;;;;;3.83;100.00;101249.63;5026277;28;20100;-54
2023/01/10 01:36:11;;;;;;;28.38;10.63;;;;;;;3.84;100.00;101255.72;5025635;28;20033;-55
2023/01/10 01:38:37;;;;;;;28.27;11.45;;;;;;;3.82;100.00;101253.22;5021244;28;20029;-53
2023/01/10 01:41:55;;;;;;;27.48;10.65;;;;;;;3.87;100.00;101264.22;5028289;28;20441;-55
2023/01/10 01:44:09;;;;;;;27.38;11.57;;;;;;;3.90;100.00;101266.63;5026655;28;20030;-55
2023/01/10 01:46:37;;;;;;;27.05;10.43;;;;;;;3.94;100.00;101261.19;5028492;28;20359;-53
2023/01/10 01:49:05;;;;;;;29.40;10.63;;;;;;;3.95;100.00;101268.09;5026691;28;21108;-57
2023/01/10 01:51:32;;;;;;;28.17;10.48;;;;;;;4.05;100.00;101277.00;5021905;28;20044;-55
2023/01/10 01:54:06;;;;;;;27.02;10.02;;;;;;;4.00;100.00;101272.06;5026690;28;20029;-54
2023/01/10 01:56:37;;;;;;;24.38;8.85;;;;;;;4.01;100.00;101278.16;5030754;28;20060;-53
2023/01/10 01:59:11;;;;;;;27.80;8.98;;;;;;;4.03;100.00;101281.50;5028782;28;20025;-53
2023/01/10 02:01:40;;;;;;;25.77;8.18;;;;;;;4.04;100.00;101280.56;5026084;28;20108;-56
2023/01/10 02:04:17;;;;;;;31.02;8.60;;;;;;;4.04;100.00;101272.69;5027868;28;20025;-54
2023/01/10 02:06:45;;;;;;;24.63;7.75;;;;;;;4.05;100.00;101279.63;5027610;28;20080;-55
2023/01/10 02:09:22;;;;;;;24.25;7.35;;;;;;;4.12;100.00;101285.28;5028224;28;20030;-55
2023/01/10 02:11:48;;;;;;;23.00;7.57;;;;;;;4.11;100.00;101283.59;5028487;28;20063;-56
2023/01/10 02:14:14;;;;;;;20.45;6.65;;;;;;;4.14;100.00;101288.63;5028622;28;20108;-55
2023/01/10 02:16:39;;;;;;;25.25;7.32;;;;;;;4.12;100.00;101291.38;5031486;28;20031;-55
2023/01/10 02:19:16;;;;;;;25.75;6.50;;;;;;;4.14;100.00;101299.13;5029473;28;20487;-53
2023/01/10 02:22:34;;;;;;;24.77;6.60;;;;;;;4.13;100.00;101290.41;5026276;28;20044;-56
2023/01/10 02:25:29;;;;;;;23.80;6.60;;;;;;;4.11;100.00;101294.94;5026138;28;20394;-54
2023/01/10 02:28:15;;;;;;;20.08;5.72;;;;;;;4.17;100.00;101291.03;5023818;28;20461;-55
2023/01/10 02:31:01;;;;;;;19.08;5.32;;;;;;;4.11;100.00;101297.56;5027620;28;20079;-53
2023/01/10 02:33:33;;;;;;;26.00;6.15;;;;;;;4.06;100.00;101291.81;5030642;28;20099;-54
2023/01/10 02:36:16;;;;;;;21.90;5.45;;;;;;;4.05;100.00;101282.25;5017866;28;20041;-54
2023/01/10 02:39:03;;;;;;;22.80;5.50;;;;;;;4.06;100.00;101289.19;5013944;28;20104;-55
2023/01/10 02:42:00;;;;;;;23.25;5.45;;;;;;;4.04;100.00;101296.31;5024132;28;20489;-54
2023/01/10 02:44:49;;;;;;;18.38;5.15;;;;;;;4.03;100.00;101298.09;5025146;28;20038;-55
2023/01/10 02:47:14;;;;;;;22.10;5.07;;;;;;;4.05;100.00;101295.38;5022772;28;20044;-55
2023/01/10 02:49:50;;;;;;;20.85;5.10;;;;;;;3.98;100.00;101294.09;5027777;28;20022;-54
2023/01/10 02:52:20;;;;;;;22.58;4.97;;;;;;;3.95;100.00;101299.59;5028237;28;20076;-53
2023/01/10 02:54:47;;;;;;;23.83;5.13;;;;;;;4.01;100.00;101304.41;5022966;28;20034;-56
2023/01/10 02:57:43;;;;;;;19.25;4.43;;;;;;;3.99;100.00;101303.69;5022673;28;20026;-55
2023/01/10 03:00:11;;;;;;;22.15;4.75;;;;;;;3.93;100.00;101301.44;5025944;28;20091;-54
2023/01/10 03:02:51;;;;;;;23.48;4.82;;;;;;;3.83;100.00;101301.25;5027352;28;20051;-54
2023/01/10 03:05:48;;;;;;;16.92;4.53;;;;;;;3.85;100.00;101315.94;5026493;28;20037;-54
2023/01/10 03:08:46;;;;;;;21.92;4.60;;;;;;;3.97;100.00;101321.31;5021707;28;20036;-55
2023/01/10 03:11:12;;;;;;;19.90;4.90;;;;;;;3.79;100.00;101321.63;5028586;28;20665;-54
2023/01/10 03:13:49;;;;;;;23.90;5.10;;;;;;;3.78;100.00;101333.06;5021370;28;20082;-55
2023/01/10 03:16:18;;;;;;;20.65;4.65;;;;;;;3.78;100.00;101333.06;5021742;28;20025;-54
2023/01/10 03:18:57;;;;;;;21.60;4.65;;;;;;;3.76;100.00;101333.16;5026860;28;20017;-55
2023/01/10 03:21:24;;;;;;;26.17;4.90;;;;;;;3.74;100.00;101347.31;5030955;28;20469;-55
2023/01/10 03:23:54;;;;;;;20.67;5.15;;;;;;;3.76;100.00;101353.31;5028520;28;20044;-54
2023/01/10 03:26:27;;;;;;;22.42;4.65;;;;;;;3.78;100.00;101351.44;5025876;28;20125;-52
2023/01/10 03:28:56;;;;;;;;;;;;;;;3.90;100.00;101355.00;5025231;28;20760;-55
2023/01/10 03:31:35;;;;;;;18.58;4.38;;;;;;;3.86;100.00;101349.09;5018942;28;20388;-55
2023/01/10 03:34:01;;;;;;;22.80;5.88;;;;;;;3.87;100.00;101361.31;5021610;28;20033;-55
2023/01/10 03:36:50;;;;;;;25.52;4.82;;;;;;;3.91;100.00;101356.69;5030888;28;20026;-55
2023/01/10 03:39:24;;;;;;;20.20;4.55;;;;;;;3.93;100.00;101359.19;5030145;28;20037;-55
2023/01/10 03:41:53;;;;;;;22.88;4.63;;;;;;;3.98;100.00;101362.34;5018750;28;20429;-53
2023/01/10 03:44:43;;;;;;;20.10;4.35;;;;;;;4.00;100.00;101373.59;5021787;28;20037;-54
2023/01/10 03:47:23;;;;;;;28.42;4.85;;;;;;;4.02;100.00;101374.31;5023856;28;20109;-54
2023/01/10 03:49:54;;;;;;;25.33;5.10;;;;;;;3.98;100.00;101378.09;5025692;28;20042;-55
2023/01/10 03:52:23;;;;;;;28.08;5.25;;;;;;;3.98;100.00;101375.47;5028561;28;20495;-54
2023/01/10 03:54:49;;;;;;;24.70;4.57;;;;;;;3.98;100.00;101378.94;5028922;28;20055;-55
2023/01/10 03:57:20;;;;;;;25.70;4.80;;;;;;;4.03;100.00;101386.50;5027990;28;20057;-55
2023/01/10 03:59:49;;;;;;;20.45;4.45;;;;;;;4.01;100.00;101393.63;5022074;28;20041;-54
2023/01/10 04:02:14;;;;;;;24.08;5.05;;;;;;;3.99;100.00;101390.28;5028131;28;20026;-55
2023/01/10 04:04:40;;;;;;;20.95;4.80;;;;;;;3.99;100.00;101393.72;5027864;28;20035;-55
2023/01/10 04:07:05;;;;;;;22.10;4.45;;;;;;;4.01;100.00;101399.72;5028803;28;20040;-53
2023/01/10 04:09:31;;;;;;;26.77;4.97;;;;;;;4.01;100.00;101404.13;5021856;28;20088;-55
2023/01/10 04:11:56;;;;;;;22.38;4.68;;;;;;;3.99;100.00;101400.78;5027185;28;20044;-54
2023/01/10 04:14:21;;;;;;;25.60;4.82;;;;;;;3.98;100.00;101399.06;5028203;28;20128;-52
2023/01/10 04:16:47;;;;;;;24.30;4.65;;;;;;;3.95;100.00;101409.78;5030445;28;20038;-55
2023/01/10 04:19:12;;;;;;;20.73;5.10;;;;;;;3.97;100.00;101413.16;5027473;28;20440;-55
2023/01/10 04:21:37;;;;;;;19.30;4.43;;;;;;;3.98;100.00;101430.56;5030120;28;20041;-55
2023/01/10 04:24:02;;;;;;;22.33;4.43;;;;;;;3.94;100.00;101427.31;5028908;28;20448;-55
2023/01/10 04:26:28;;;;;;;25.88;4.90;;;;;;;3.92;100.00;101426.59;5027954;28;20040;-54
2023/01/10 04:28:53;;;;;;;20.73;4.55;;;;;;;3.98;100.00;101435.81;5026021;28;20124;-53
2023/01/10 04:31:18;;;;;;;25.23;5.40;;;;;;;3.97;100.00;101428.91;5026072;28;20025;-54
2023/01/10 04:33:44;;;;;;;27.90;5.07;;;;;;;3.95;100.00;101428.16;5026353;28;20120;-53
2023/01/10 04:36:09;;;;;;;24.92;5.00;;;;;;;3.94;100.00;101429.13;5024502;28;20499;-54
2023/01/10 04:38:34;;;;;;;29.15;4.65;;;;;;;3.97;100.00;101421.03;5028302;28;20065;-53
2023/01/10 04:40:59;;;;;;;24.58;4.57;;;;;;;3.95;100.00;101415.88;5028211;28;20480;-53
2023/01/10 04:43:25;;;;;;;31.55;5.72;;;;;;;3.94;100.00;101408.13;5026108;28;20123;-55
2023/01/10 04:45:50;;;;;;;22.33;4.65;;;;;;;3.92;100.00;101415.25;5018049;28;20053;-56
2023/01/10 04:48:16;;;;;;;30.08;5.13;;;;;;;3.94;100.00;101423.88;5022020;28;20081;-54
2023/01/10 04:50:41;;;;;;;26.42;5.05;;;;;;;3.88;100.00;101436.44;5027033;28;20472;-55
2023/01/10 04:53:07;;;;;;;27.70;4.85;;;;;;;3.88;100.00;101448.72;5027889;28;20207;-53
2023/01/10 04:55:33;;;;;;;28.70;4.88;;;;;;;3.90;100.00;101450.31;5019222;28;20060;-56
2023/01/10 04:58:00;;;;;;;28.48;5.30;;;;;;;3.88;100.00;101446.94;5016624;28;20026;-55
2023/01/10 05:00:26;;;;;;;27.92;4.60;;;;;;;3.97;100.00;101434.16;5015269;28;20489;-56
2023/01/10 05:02:55;;;;;;;25.65;4.45;;;;;;;3.92;100.00;101430.97;5022729;28;20113;-55
2023/01/10 05:05:20;;;;;;;31.88;5.00;;;;;;;3.94;100.00;101429.13;5016454;28;20024;-55
2023/01/10 05:07:46;;;;;;;23.02;4.65;;;;;;;3.90;100.00;101439.81;5023162;28;20029;-56
2023/01/10 05:10:11;;;;;;;29.05;4.57;;;;;;;3.89;100.00;101442.53;5024417;28;20026;-56
2023/01/10 05:12:37;;;;;;;22.38;4.32;;;;;;;3.88;100.00;101446.09;5028493;28;20030;-54
2023/01/10 05:15:03;;;;;;;23.55;4.70;;;;;;;3.92;100.00;101462.47;5025453;28;20061;-55
2023/01/10 05:17:28;;;;;;;30.52;4.65;;;;;;;3.90;100.00;101479.16;5025564;28;20481;-55
2023/01/10 05:19:53;;;;;;;30.42;5.13;;;;;;;3.87;100.00;101482.00;5026044;28;20026;-54
2023/01/10 05:22:18;;;;;;;28.40;5.07;;;;;;;3.95;100.00;101494.59;5033198;28;20081;-55
2023/01/10 05:24:44;;;;;;;23.73;4.85;;;;;;;3.99;100.00;101484.75;5033136;28;20044;-55
2023/01/10 05:27:09;;;;;;;24.45;5.03;;;;;;;3.94;100.00;101482.41;5031648;28;20052;-52
2023/01/10 05:29:34;;;;;;;28.10;4.70;;;;;;;3.94;100.00;101497.34;5027388;28;20033;-54
2023/01/10 05:32:00;;;;;;;30.95;4.68;;;;;;;3.97;100.00;101502.38;5032554;28;20451;-54
2023/01/10 05:34:25;;;;;;;29.67;4.68;;;;;;;4.00;100.00;101494.31;5026005;28;20481;-55
2023/01/10 05:36:51;;;;;;;29.73;5.00;;;;;;;3.98;100.00;101494.41;5032154;28;20024;-55
2023/01/10 05:39:16;;;;;;;24.30;4.70;;;;;;;4.08;100.00;101499.88;5030556;28;20041;-56
2023/01/10 05:41:42;;;;;;;25.88;5.00;;;;;;;3.99;100.00;101495.25;5032282;28;20184;-55
2023/01/10 05:44:07;;;;;;;25.10;5.03;;;;;;;3.99;100.00;101495.25;5026356;28;20041;-53
2023/01/10 05:46:33;;;;;;;32.85;5.20;;;;;;;4.00;100.00;101502.19;5026767;28;20033;-56
2023/01/10 05:48:58;;;;;;;21.27;4.28;;;;;;;4.00;100.00;101502.19;5026429;28;20033;-56
2023/01/10 05:51:24;;;;;;;29.55;5.47;;;;;;;4.11;100.00;101510.19;5026067;28;20029;-54
2023/01/10 05:53:50;;;;;;;29.70;5.50;;;;;;;4.04;100.00;101516.75;5022121;28;20040;-53
2023/01/10 05:56:15;;;;;;;27.73;5.07;;;;;;;4.04;100.00;101519.38;5030557;28;20079;-55
2023/01/10 05:58:40;;;;;;;26.95;5.10;;;;;;;4.17;100.00;101529.94;5028056;28;20461;-55
2023/01/10 06:01:06;;;;;;;26.58;5.03;;;;;;;4.14;100.00;101528.34;5032341;28;20096;-53
2023/01/10 06:03:31;;;;;;;27.13;5.00;;;;;;;4.09;100.00;101530.44;5029528;28;20033;-52
2023/01/10 06:05:56;;;;;;;28.88;4.78;;;;;;;4.07;100.00;101528.84;5027398;28;20131;-56
2023/01/10 06:08:23;;;;;;;29.20;5.03;;;;;;;4.10;100.00;101534.72;5027757;28;20507;-55
2023/01/10 06:10:48;;;;;;;32.90;5.40;;;;;;;4.05;100.00;101526.34;5031756;28;20037;-54
2023/01/10 06:13:14;;;;;;;31.85;4.97;;;;;;;4.04;100.00;101522.88;5030935;28;20105;-55
2023/01/10 06:15:39;;;;;;;26.15;5.13;;;;;;;4.03;100.00;101528.22;5027584;28;20021;-59
2023/01/10 06:18:05;;;;;;;30.08;5.22;;;;;;;4.04;100.00;101525.50;5023410;28;20083;-55
2023/01/10 06:20:31;;;;;;;27.77;4.28;;;;;;;4.07;100.00;101519.19;5023042;28;20030;-56
2023/01/10 06:22:57;;;;;;;32.45;5.40;;;;;;;4.02;100.00;101521.28;5022161;28;20386;-56
2023/01/10 06:25:22;;;;;;;31.00;5.10;;;;;;;4.04;100.00;101524.63;5023405;28;20032;-52
2023/01/10 06:27:48;;;;;;;28.75;5.22;;;;;;;4.01;100.00;101532.72;5020006;28;20026;-51
2023/01/10 06:30:13;;;;;;;29.38;5.15;;;;;;;3.99;100.00;101532.81;5025582;28;20492;-53
2023/01/10 06:32:39;;;;;;;27.98;4.90;;;;;;;4.03;100.00;101538.72;5025704;28;20025;-55
2023/01/10 06:35:06;;;;;;;26.52;4.72;;;;;;;3.98;100.00;101535.53;5025109;28;20029;-55
2023/01/10 06:37:31;;;;;;;29.20;5.25;;;;;;;3.98;100.00;101541.66;5026575;28;20033;-55
2023/01/10 06:39:57;;;;;;;34.13;5.47;;;;;;;3.99;100.00;101547.75;5029276;28;20029;-53
2023/01/10 06:42:22;;;;;;;28.05;5.25;;;;;;;3.96;100.00;101547.94;5042490;28;20079;-53
2023/01/10 06:44:47;;;;;;;28.30;5.22;;;;;;;3.92;100.00;101549.06;5023863;28;20050;-52
2023/01/10 06:47:12;;;;;;;31.52;5.53;;;;;;;3.90;100.00;101552.63;5021464;28;20032;-55
2023/01/10 06:49:38;;;;;;;32.30;5.22;;;;;;;3.92;100.00;101556.94;5028074;28;20072;-53
2023/01/10 06:52:03;;;;;;;30.08;5.75;;;;;;;3.87;100.00;101560.72;5025701;28;20045;-54
2023/01/10 06:54:29;;;;;;;30.23;5.35;;;;;;;3.96;100.00;101568.94;5030358;28;20165;-52
2023/01/10 06:56:54;;;;;;;27.42;5.13;;;;;;;3.82;100.00;101575.91;5027480;28;20040;-54
2023/01/10 06:59:19;;;;;;;27.98;4.80;;;;;;;3.82;100.00;101575.91;5017077;28;20034;-53
2023/01/10 07:01:45;;;;;;;30.48;5.13;;;;;;;3.80;100.00;101577.78;5015264;28;20222;-57
2023/01/10 07:04:10;;;;;;;29.77;5.05;;;;;;;3.73;100.00;101577.34;5027014;28;20115;-55
2023/01/10 07:06:38;;;;;;;30.20;5.72;;;;;;;3.73;100.00;101594.88;5020077;28;20037;-54
2023/01/10 07:09:05;;;;;;;25.85;5.00;;;;;;;3.61;100.00;101581.59;5027922;28;20033;-55
2023/01/10 07:11:32;;;;;;;29.27;4.70;;;;;;;3.63;100.00;101600.72;5022614;28;20017;-53
2023/01/10 07:13:57;;;;;;;29.33;5.18;;;;;;;3.60;100.00;101606.13;5022444;28;20048;-52
2023/01/10 07:16:22;;;;;;;29.98;5.63;;;;;;;3.55;100.00;101597.72;5028184;28;20033;-52
2023/01/10 07:18:47;;;;;;;30.05;5.28;;;;;;;3.58;100.00;101613.28;5022487;28;20077;-55
2023/01/10 07:21:14;;;;;;;30.48;5.07;;;;;;;3.58;100.00;101618.50;5024309;28;20470;-56
2023/01/10 07:23:39;;;;;;;34.13;5.93;;;;;;;3.53;100.00;101610.09;5025615;28;20096;-55
2023/01/10 07:26:07;;;;;;;31.50;5.28;;;;;;;3.52;100.00;101626.78;5029607;28;20041;-54
2023/01/10 07:28:36;;;;;;;26.90;4.93;;;;;;;3.60;100.00;101632.38;5025809;28;20025;-56
2023/01/10 07:31:03;;;;;;;27.00;5.15;;;;;;;3.59;100.00;101635.06;5030589;28;20053;-55
2023/01/10 07:33:29;;;;;;;26.20;5.32;;;;;;;3.58;100.00;101639.50;5027833;28;20042;-54
2023/01/10 07:35:54;;;;;;;27.77;5.10;;;;;;;3.57;100.00;101637.81;5027360;28;20487;-54
2023/01/10 07:38:20;;;;;;;24.52;5.00;;;;;;;3.60;100.00;101647.28;5019417;28;20400;-55
2023/01/10 07:40:45;;;;;;;28.08;5.00;;;;;;;3.66;100.00;101659.16;5016869;28;20057;-55
2023/01/10 07:43:10;;;;;;;24.08;4.90;;;;;;;3.63;100.00;101658.41;5023236;28;20547;-56
2023/01/10 07:45:36;;;;;;;27.75;4.93;;;;;;;3.61;100.00;101649.78;5023604;28;20128;-56
2023/01/10 07:48:03;;;;;;;26.35;4.70;;;;;;;3.60;100.00;101655.97;5030261;28;20033;-56
2023/01/10 07:50:32;;;;;;;27.67;4.68;;;;;;;3.59;100.00;101656.91;5019644;28;20035;-57
2023/01/10 07:53:02;;;;;;;28.23;4.80;;;;;;;3.62;100.00;101661.13;5020223;28;20564;-59
2023/01/10 07:55:28;;;;;;;27.92;5.00;;;;;;;3.59;100.00;101672.66;5022971;28;20033;-56
2023/01/10 07:57:54;;;;;;;29.70;4.85;;;;;;;3.59;100.00;101667.41;5022120;28;20034;-57
2023/01/10 08:00:20;;;;;;;30.63;5.25;;;;;;;3.61;100.00;101664.69;5028251;28;20095;-57
2023/01/10 08:02:46;;;;;;;27.00;5.07;;;;;;;3.59;100.00;101669.16;5028402;28;20537;-57
2023/01/10 08:05:12;;;;;;;31.17;5.30;;;;;;;3.57;100.00;101664.03;5028335;28;20032;-54
2023/01/10 08:07:37;;;;;;;33.03;5.38;;;;;;;3.59;100.00;101664.78;5019923;28;20456;-56
2023/01/10 08:10:06;;;;;;;25.88;4.65;;;;;;;3.55;100.00;101665.91;5024368;28;20061;-57
2023/01/10 08:12:31;;;;;;;30.70;4.78;;;;;;;3.54;100.00;101674.72;5024266;28;20025;-58
2023/01/10 08:14:57;;;;;;;27.55;5.45;;;;;;;3.48;100.00;101664.59;5023791;28;20026;-56
2023/01/10 08:17:22;;;;;;;23.73;4.93;;;;;;;3.47;100.00;101662.91;5020816;28;20039;-56
2023/01/10 08:19:47;;;;;;;26.10;5.32;;;;;;;3.44;100.00;101658.72;5017504;28;20116;-58
2023/01/10 08:22:13;;;;;;;27.65;5.20;;;;;;;3.43;100.00;101657.03;5026665;28;20022;-58
2023/01/10 08:24:38;;;;;;;26.55;5.40;;;;;;;3.43;100.00;101664.03;5026055;28;20032;-57
2023/01/10 08:27:04;;;;;;;28.42;5.28;;;;;;;3.45;100.00;101664.81;5019709;28;20071;-57
2023/01/10 08:29:30;;;;;;;26.52;4.88;;;;;;;3.42;100.00;101662.34;5029337;28;20030;-57
2023/01/10 08:31:55;;;;;;;25.58;4.90;;;;;;;3.47;100.00;101669.00;5029303;28;20504;-59
2023/01/10 08:34:21;;;;;;;29.95;4.93;;;;;;;3.54;100.00;101674.72;5020497;28;20534;-57
2023/01/10 08:36:51;;;;;;;27.00;5.15;;;;;;;3.52;100.00;101675.75;5016186;28;20033;-57
2023/01/10 08:39:17;;;;;;;33.05;5.28;;;;;;;3.54;100.00;101679.97;5020371;28;20029;-57
2023/01/10 08:41:42;;;;;;;25.70;5.03;;;;;;;3.59;100.00;101671.78;5020812;28;20504;-57
2023/01/10 08:44:07;;;;;;;31.45;4.85;;;;;;;3.59;100.00;101667.41;5016863;28;20116;-56
2023/01/10 08:46:32;;;;;;;31.45;5.13;;;;;;;3.60;100.00;101663.84;5025303;28;20143;-57
2023/01/10 08:48:58;;;;;;;26.02;4.65;;;;;;;3.61;100.00;101670.75;5018484;28;20646;-56
2023/01/10 08:51:23;;;;;;;29.63;4.93;;;;;;;3.65;100.00;101670.59;5029067;28;20029;-56
2023/01/10 08:53:48;;;;;;;25.42;4.70;;;;;;;3.63;100.00;101662.81;5027474;28;20465;-56
2023/01/10 08:56:14;;;;;;;26.40;5.45;;;;;;;3.65;100.00;101671.41;5031832;28;20471;-58
2023/01/10 08:58:39;;;;;;;32.65;5.30;;;;;;;3.68;100.00;101665.13;5028287;28;20049;-57
2023/01/10 09:01:06;;;;;;;22.65;4.70;;;;;;;3.68;100.00;101666.00;5027192;28;20084;-56
2023/01/10 09:03:32;;;;;;;30.02;5.13;;;;;;;3.69;100.00;101664.22;5025444;28;20037;-57
2023/01/10 09:05:58;;;;;;;27.48;5.15;;;;;;;3.69;100.00;101656.34;5025542;28;20041;-56
2023/01/10 09:08:24;;;;;;;32.35;5.45;;;;;;;3.72;100.00;101661.38;5029856;28;20029;-59
2023/01/10 09:10:50;;;;;;;27.50;4.97;;;;;;;3.76;100.00;101649.78;5027881;28;20095;-57
2023/01/10 09:13:15;;;;;;;26.13;4.63;;;;;;;3.75;100.00;101643.66;5027643;28;20053;-57
2023/01/10 09:15:41;;;;;;;28.13;5.10;;;;;;;3.83;100.00;101648.44;5029477;28;20034;-56
2023/01/10 09:18:10;;;;;;;29.10;4.70;;;;;;;3.83;100.00;101642.34;5025682;28;20033;-58
2023/01/10 09:20:38;;;;;;;26.77;4.60;;;;;;;3.85;100.00;101651.81;5021470;28;20029;-57
2023/01/10 09:23:07;;;;;;;31.15;5.03;;;;;;;3.88;100.00;101654.25;5027823;28;20121;-56
2023/01/10 09:25:33;;;;;;;28.05;5.00;;;;;;;3.90;100.00;101657.59;5028519;28;20037;-57
2023/01/10 09:28:00;;;;;;;24.27;4.38;;;;;;;3.93;100.00;101653.94;5021432;28;20045;-55
2023/01/10 09:30:27;;;;;;;27.98;5.07;;;;;;;3.93;100.00;101655.72;5022218;28;20448;-57
2023/01/10 09:32:53;;;;;;;24.95;4.68;;;;;;;3.96;100.00;101652.91;5029948;28;20028;-60
2023/01/10 09:35:19;;;;;;;24.10;4.28;;;;;;;3.97;100.00;101644.09;5026126;28;20068;-57
2023/01/10 09:37:45;;;;;;;29.70;4.80;;;;;;;3.98;100.00;101651.03;5027959;28;20492;-56
2023/01/10 09:40:15;;;;;;;25.50;4.50;;;;;;;3.99;100.00;101647.47;5030055;28;20033;-57
2023/01/10 09:43:05;;;;;;;29.15;4.82;;;;;;;4.10;99.71;101655.47;5024572;28;20109;-57
2023/01/10 09:46:15;;;;;;;27.55;5.03;;;;;;;4.08;99.04;101646.88;5027620;28;20456;-59
2023/01/10 09:48:56;;;;;;;25.73;5.15;;;;;;;4.13;99.51;101655.28;5027619;28;20432;-57
2023/01/10 09:51:42;;;;;;;25.23;4.78;;;;;;;4.17;98.40;101651.53;5037268;28;20163;-57
2023/01/10 09:54:40;;;;;;;26.42;4.68;;;;;;;4.24;98.74;101656.41;5033204;28;20025;-58
2023/01/10 09:57:15;;;;;;;25.55;4.80;;;;;;;4.23;98.27;101644.19;5024006;28;20044;-56
2023/01/10 09:59:41;;;;;;;30.73;4.93;;;;;;;4.26;99.16;101646.63;5027058;28;20354;-58
2023/01/10 10:02:19;;;;;;;29.23;4.50;;;;;;;4.30;98.78;101643.69;5029516;28;20034;-57
2023/01/10 10:04:58;;;;;;;21.35;4.32;;;;;;;4.31;98.50;101652.41;5026454;28;20025;-59
2023/01/10 10:07:23;;;;;;;24.98;4.45;;;;;;;4.34;98.87;101646.94;5029349;28;20037;-58
2023/01/10 10:09:49;;;;;;;26.25;4.60;;;;;;;4.36;98.89;101650.34;5028319;28;20037;-57
2023/01/10 10:12:39;;;;;;;20.92;4.43;;;;;;;4.40;98.80;101646.56;5027155;28;20037;-56
2023/01/10 10:15:04;;;;;;;25.17;4.35;;;;;;;4.40;98.16;101641.28;5031536;28;20029;-55
2023/01/10 10:17:41;;;;;;;24.05;4.68;;;;;;;4.44;98.14;101632.28;5031807;28;20037;-56
2023/01/10 10:20:25;;;;;;;23.63;4.72;;;;;;;4.48;98.82;101625.03;5029592;28;20072;-55
2023/01/10 10:23:11;;;;;;;20.13;4.25;;;;;;;4.51;98.59;101631.88;5032908;28;20030;-54
2023/01/10 10:25:59;;;;;;;23.08;4.53;;;;;;;4.54;98.83;101618.56;5027568;28;20061;-56
2023/01/10 10:28:42;;;;;;;25.27;4.20;;;;;;;4.57;98.55;101621.81;5027452;28;20045;-56
2023/01/10 10:31:25;;;;;;;23.17;4.15;;;;;;;4.61;98.20;101630.31;5024331;28;20044;-54
2023/01/10 10:34:10;;;;;;;28.40;4.72;;;;;;;4.62;98.19;101615.38;5031491;28;20087;-55
2023/01/10 10:36:55;;;;;;;24.20;4.28;;;;;;;4.65;98.13;101612.56;5024614;28;20095;-54
2023/01/10 10:39:27;;;;;;;25.42;4.85;;;;;;;4.66;98.58;101609.84;5021568;28;20026;-56
2023/01/10 10:41:54;;;;;;;21.20;4.28;;;;;;;4.69;97.99;101599.13;5032711;28;20556;-56
2023/01/10 10:44:45;;;;;;;26.88;4.45;;;;;;;4.71;98.34;101591.97;5027399;28;20050;-55
2023/01/10 10:47:15;;;;;;;23.50;4.25;;;;;;;4.73;98.43;101585.78;5021307;28;20045;-54
2023/01/10 10:49:55;;;;;;;31.20;5.00;;;;;;;4.75;97.76;101581.25;5028409;28;20547;-55
2023/01/10 10:52:30;;;;;;;23.90;4.40;;;;;;;4.78;98.36;101575.81;5027719;28;20091;-56
2023/01/10 10:54:57;;;;;;;24.55;4.30;;;;;;;4.83;97.83;101578.94;5026995;28;20038;-55
2023/01/10 10:57:26;;;;;;;22.45;4.25;;;;;;;4.83;98.28;101573.66;5021238;28;20041;-54
2023/01/10 10:59:52;;;;;;;26.98;4.82;;;;;;;4.90;98.63;101569.69;5019212;28;20049;-55
2023/01/10 11:02:30;;;;;;;27.23;4.78;;;;;;;4.89;97.71;101568.00;5019710;28;20045;-55
2023/01/10 11:04:59;;;;;;;22.65;4.55;;;;;;;4.93;98.48;101564.22;5033232;28;20252;-54
2023/01/10 11:07:28;;;;;;;26.70;4.65;;;;;;;4.91;98.34;101552.97;5020966;28;20415;-55
2023/01/10 11:12:23;;;;;;;25.40;4.57;;;;;;;4.97;97.57;101538.56;5020051;28;20035;-54
2023/01/10 11:14:51;;;;;;;22.15;4.18;;;;;;;5.05;97.61;101540.66;5018813;28;20083;-56
2023/01/10 11:17:24;;;;;;;27.83;4.88;;;;;;;5.07;97.64;101544.84;5020254;28;20409;-55
2023/01/10 11:20:16;;;;;;;25.02;4.80;;;;;;;5.13;97.75;101553.25;5018922;28;20469;-55
2023/01/10 11:22:47;;;;;;;24.45;4.70;;;;;;;5.10;97.16;101542.00;5019462;28;20129;-61
2023/01/10 11:25:18;;;;;;;26.27;6.35;;;;;;;5.14;96.82;101542.66;5020524;28;20087;-59
2023/01/10 11:27:48;;;;;;;27.92;4.97;;;;;;;5.15;97.39;101546.94;5019262;28;20057;-59
2023/01/10 11:30:21;;;;;;;28.30;4.90;;;;;;;5.16;97.25;101543.38;5023740;28;20780;-57
2023/01/10 11:32:56;;;;;;;28.08;5.85;;;;;;;5.20;97.45;101539.56;5020330;28;20033;-59
2023/01/10 11:35:30;;;;;;;29.50;5.53;;;;;;;5.21;97.50;101543.88;5020768;28;20026;-57
2023/01/10 11:38:17;;;;;;;31.00;5.43;;;;;;;5.17;96.49;101529.25;5018416;28;20033;-58